Wapping, Connecticut
Current Conditions -  °F | °C
As of 2:53 AM on Friday 24 Oct 2014 (Local Time) from KHFD Reporting Station
Light Rain Light Rain  
Wind Chill: 11°   Ceiling: 2200
Heat Index: 11°   Visibility: 10mi
Dew Point:   Wind: 6mph
Humidity: 83%   Direction: NA
Pressure: 29.72"   Gusts: NA
Location:  41.8353°N, 72.5722°W
Report Text: KHFD 240653Z VRB05KT 10SM -RA OVC022 11/08 A2972 RMK AO2 RAB25 SLP064 P0000 T01060078
Loading
Personal Weather Stations






























Interactive Weather Map
Tropical Storm Tracking
New forecast layout! Learn more

10-Day Weather Forecast

Advertisements
Track Severe Weather on mobile